createdAt,value
2022-11-17T00:00:32.389Z,8.00
2022-11-17T00:01:34.142Z,8.53
2022-11-17T00:02:36.832Z,8.43
2022-11-17T00:03:38.552Z,8.20
2022-11-17T00:04:40.278Z,8.57
2022-11-17T00:05:42.388Z,9.23
2022-11-17T00:06:44.484Z,9.03
2022-11-17T00:07:46.321Z,8.70
2022-11-17T00:08:48.842Z,8.43
2022-11-17T00:09:50.541Z,8.30
2022-11-17T00:10:52.205Z,8.80
2022-11-17T00:12:12.466Z,8.63
2022-11-17T00:13:33.319Z,7.63
2022-11-17T00:14:36.863Z,7.30
2022-11-17T00:15:43.549Z,7.70
2022-11-17T00:16:50.061Z,8.50
2022-11-17T00:18:14.792Z,7.73
2022-11-17T00:19:35.150Z,7.73
2022-11-17T00:20:59.337Z,7.80
2022-11-17T00:24:24.071Z,7.20
2022-11-17T00:25:25.878Z,6.73
2022-11-17T00:26:31.828Z,7.63
2022-11-17T00:27:33.558Z,7.47
2022-11-17T00:28:35.240Z,7.10
2022-11-17T00:29:39.318Z,7.37
2022-11-17T00:31:04.645Z,6.97
2022-11-17T00:32:30.101Z,6.80
2022-11-17T00:33:50.662Z,6.63
2022-11-17T00:34:52.388Z,6.53
2022-11-17T00:35:54.932Z,7.20
2022-11-17T00:36:57.497Z,7.07
2022-11-17T00:38:17.603Z,8.20
2022-11-17T00:39:21.460Z,8.90
2022-11-17T00:40:23.143Z,8.00
2022-11-17T00:41:24.886Z,8.80
2022-11-17T00:42:26.588Z,9.03
2022-11-17T00:43:28.283Z,8.50
2022-11-17T00:44:30.591Z,8.30
2022-11-17T00:45:32.271Z,8.33
2022-11-17T00:46:34.862Z,8.70
2022-11-17T00:47:36.560Z,8.90
2022-11-17T00:48:38.247Z,7.97
2022-11-17T00:49:40.072Z,8.57
2022-11-17T00:50:41.744Z,9.50
2022-11-17T00:51:43.471Z,8.63
2022-11-17T00:52:45.258Z,8.27
2022-11-17T00:53:47.058Z,8.82
2022-11-17T00:54:48.823Z,8.80
2022-11-17T00:55:50.653Z,7.77
2022-11-17T00:56:52.579Z,7.67
2022-11-17T00:57:54.260Z,7.13
2022-11-17T00:58:56.293Z,7.80
2022-11-17T00:59:58.006Z,7.90
2022-11-17T01:00:59.743Z,7.47
2022-11-17T01:02:01.606Z,7.83
2022-11-17T01:03:03.504Z,7.73
2022-11-17T01:04:06.317Z,7.47
2022-11-17T01:05:08.425Z,8.07
2022-11-17T01:06:16.599Z,7.47
2022-11-17T01:07:18.365Z,8.03
2022-11-17T01:08:20.302Z,7.90
2022-11-17T01:09:23.740Z,7.60
2022-11-17T01:10:25.425Z,7.80
2022-11-17T01:11:27.878Z,7.13
2022-11-17T01:12:29.642Z,7.57
2022-11-17T01:13:31.500Z,6.77
2022-11-17T01:14:33.240Z,7.10
2022-11-17T01:15:34.999Z,7.20
2022-11-17T01:16:36.713Z,6.43
2022-11-17T01:17:38.475Z,6.63
2022-11-17T01:18:40.948Z,7.40
2022-11-17T01:19:42.806Z,7.57
2022-11-17T01:20:44.572Z,6.70
2022-11-17T01:21:46.933Z,7.63
2022-11-17T01:22:48.634Z,7.33
2022-11-17T01:23:53.262Z,7.00
2022-11-17T01:24:54.981Z,7.07
2022-11-17T01:26:02.709Z,6.13
2022-11-17T01:27:04.394Z,6.07
2022-11-17T01:28:07.281Z,7.50
2022-11-17T01:29:12.312Z,7.27
2022-11-17T01:30:17.658Z,6.90
2022-11-17T01:31:51.997Z,6.90
2022-11-17T01:32:53.829Z,6.90
2022-11-17T01:33:55.696Z,6.63
2022-11-17T01:34:57.493Z,6.47
2022-11-17T01:36:05.652Z,6.57
2022-11-17T01:37:19.544Z,7.00
2022-11-17T01:38:21.605Z,6.50
2022-11-17T01:39:24.963Z,6.67
2022-11-17T01:40:26.651Z,6.40
2022-11-17T01:41:28.574Z,6.57
2022-11-17T01:42:30.373Z,6.63
2022-11-17T01:43:44.316Z,7.40
2022-11-17T01:45:01.220Z,6.67
2022-11-17T01:46:03.119Z,6.60
2022-11-17T01:47:13.399Z,6.80
2022-11-17T01:48:15.350Z,6.67
2022-11-17T01:49:25.096Z,6.57
2022-11-17T01:50:36.115Z,6.70
2022-11-17T01:51:42.421Z,6.70
2022-11-17T01:52:45.000Z,6.43
2022-11-17T01:53:50.289Z,6.63
2022-11-17T01:54:54.085Z,6.37
2022-11-17T01:56:00.847Z,6.83
2022-11-17T01:57:09.393Z,5.83
2022-11-17T01:58:15.774Z,6.47
2022-11-17T01:59:24.856Z,6.27
2022-11-17T02:00:27.582Z,6.10
2022-11-17T02:01:29.561Z,6.03
2022-11-17T02:02:32.736Z,6.07
2022-11-17T02:03:36.931Z,6.00
2022-11-17T02:04:43.720Z,6.83
2022-11-17T02:05:51.802Z,6.03
2022-11-17T02:06:58.383Z,5.97
2022-11-17T02:08:03.250Z,6.77
2022-11-17T02:09:05.025Z,6.53
2022-11-17T02:10:07.642Z,6.53
2022-11-17T02:11:13.200Z,6.43
2022-11-17T02:12:16.302Z,6.37
2022-11-17T02:13:19.084Z,6.57
2022-11-17T02:14:20.749Z,6.80
2022-11-17T02:15:22.988Z,6.57
2022-11-17T02:16:24.683Z,6.80
2022-11-17T02:17:34.888Z,6.50
2022-11-17T02:18:36.681Z,5.97
2022-11-17T02:19:40.898Z,6.87
2022-11-17T02:20:51.957Z,6.65
2022-11-17T02:22:41.581Z,6.07
2022-11-17T02:23:58.439Z,5.75
2022-11-17T02:25:22.971Z,5.63
2022-11-17T02:26:47.024Z,5.10
2022-11-17T02:28:03.909Z,4.93
2022-11-17T02:29:08.363Z,5.73
2022-11-17T02:30:19.304Z,5.60
2022-11-17T02:31:33.755Z,5.43
2022-11-17T02:32:54.267Z,5.40
2022-11-17T02:34:11.259Z,5.60
2022-11-17T02:35:15.722Z,5.27
2022-11-17T02:36:22.803Z,4.47
2022-11-17T02:37:27.447Z,5.00
2022-11-17T02:38:43.897Z,5.20
2022-11-17T02:39:53.387Z,5.33
2022-11-17T02:41:38.112Z,4.87
2022-11-17T02:43:05.967Z,4.75
2022-11-17T02:44:17.834Z,4.50
2022-11-17T02:45:24.910Z,4.27
2022-11-17T02:46:30.615Z,3.83
2022-11-17T02:47:36.014Z,4.87
2022-11-17T02:48:41.360Z,4.90
2022-11-17T02:49:50.560Z,4.67
2022-11-17T02:50:53.757Z,4.70
2022-11-17T02:51:58.306Z,4.97
2022-11-17T02:53:00.233Z,4.77
2022-11-17T02:54:02.903Z,4.90
2022-11-17T02:55:08.026Z,4.50
2022-11-17T02:56:09.757Z,5.23
2022-11-17T02:57:34.763Z,4.43
2022-11-17T02:58:36.500Z,4.50
2022-11-17T02:59:45.186Z,4.10
2022-11-17T03:01:05.413Z,4.43
2022-11-17T03:02:33.308Z,4.73
2022-11-17T03:03:50.122Z,4.43
2022-11-17T03:05:12.645Z,5.83
2022-11-17T03:06:35.884Z,3.93
2022-11-17T03:08:08.082Z,4.47
2022-11-17T03:09:18.928Z,3.77
2022-11-17T03:10:22.514Z,4.03
2022-11-17T03:11:46.216Z,4.30
2022-11-17T03:13:14.151Z,4.80
2022-11-17T03:14:34.360Z,4.30
2022-11-17T03:16:02.383Z,4.87
2022-11-17T03:17:33.042Z,4.50
2022-11-17T03:19:01.614Z,4.70
2022-11-17T03:20:19.556Z,5.10
2022-11-17T03:21:33.232Z,5.63
2022-11-17T03:22:53.001Z,5.47
2022-11-17T03:24:06.762Z,5.13
2022-11-17T03:25:13.802Z,5.63
2022-11-17T03:26:24.463Z,5.30
2022-11-17T03:27:35.254Z,5.33
2022-11-17T03:28:37.960Z,5.20
2022-11-17T03:29:51.394Z,5.10
2022-11-17T03:30:54.009Z,5.33
2022-11-17T03:32:00.189Z,5.23
2022-11-17T03:33:10.495Z,5.20
2022-11-17T03:34:16.547Z,5.67
2022-11-17T03:35:23.088Z,5.83
2022-11-17T03:36:31.169Z,5.67
2022-11-17T03:37:36.854Z,5.70
2022-11-17T03:38:44.985Z,5.43
2022-11-17T03:39:57.665Z,5.87
2022-11-17T03:41:03.047Z,5.47
2022-11-17T03:42:15.735Z,6.00
2022-11-17T03:43:20.424Z,6.37
2022-11-17T03:44:24.798Z,5.60
2022-11-17T03:45:33.998Z,6.70
2022-11-17T03:46:38.769Z,6.10
2022-11-17T03:47:42.041Z,6.13
2022-11-17T03:48:48.758Z,6.23
2022-11-17T03:49:56.858Z,6.17
2022-11-17T03:51:07.212Z,6.33
2022-11-17T03:52:08.959Z,6.70
2022-11-17T03:53:11.084Z,6.87
2022-11-17T03:54:14.650Z,6.60
2022-11-17T03:55:17.017Z,7.37
2022-11-17T03:56:30.685Z,8.60
2022-11-17T03:57:59.247Z,7.47
2022-11-17T03:59:12.553Z,6.57
2022-11-17T04:00:16.816Z,6.53
2022-11-17T04:01:20.925Z,7.47
2022-11-17T04:02:24.769Z,6.70
2022-11-17T04:03:34.343Z,7.37
2022-11-17T04:04:54.957Z,7.07
2022-11-17T04:05:56.762Z,7.07
2022-11-17T04:06:58.733Z,7.07
2022-11-17T04:08:00.515Z,6.73
2022-11-17T04:09:02.372Z,6.30
2022-11-17T04:10:05.525Z,7.33
2022-11-17T04:11:26.158Z,6.43
2022-11-17T04:12:46.899Z,6.20
2022-11-17T04:14:07.410Z,7.00
2022-11-17T04:15:29.665Z,6.60
2022-11-17T04:16:31.566Z,6.30
2022-11-17T04:17:33.242Z,6.77
2022-11-17T04:18:35.019Z,6.63
2022-11-17T04:19:36.780Z,7.83
2022-11-17T04:20:38.564Z,9.25
2022-11-17T04:21:40.343Z,7.03
2022-11-17T04:22:42.057Z,7.07
2022-11-17T04:23:43.782Z,6.53
2022-11-17T04:24:45.480Z,6.47
2022-11-17T04:26:11.788Z,6.47
2022-11-17T04:27:36.452Z,6.47
2022-11-17T04:28:42.548Z,6.60
2022-11-17T04:29:44.235Z,6.40
2022-11-17T04:30:45.907Z,6.67
2022-11-17T04:31:47.670Z,6.43
2022-11-17T04:32:49.372Z,6.40
2022-11-17T04:34:01.943Z,6.95
2022-11-17T04:35:03.750Z,6.90
2022-11-17T04:36:06.655Z,6.10
2022-11-17T04:37:17.277Z,6.25
2022-11-17T04:38:19.149Z,6.22
2022-11-17T04:39:20.885Z,5.78
2022-11-17T04:40:22.579Z,6.13
2022-11-17T04:41:44.425Z,6.17
2022-11-17T04:42:46.125Z,6.07
2022-11-17T04:43:47.950Z,6.40
2022-11-17T04:44:49.641Z,6.27
2022-11-17T04:45:51.319Z,6.25
2022-11-17T04:46:54.292Z,6.37
2022-11-17T04:47:56.017Z,6.37
2022-11-17T04:48:58.586Z,6.80
2022-11-17T04:50:01.030Z,7.03
2022-11-17T04:51:02.719Z,6.37
2022-11-17T04:52:04.784Z,5.90
2022-11-17T04:53:06.505Z,6.32
2022-11-17T04:54:09.789Z,6.30
2022-11-17T04:55:11.467Z,5.95
2022-11-17T04:56:13.690Z,6.00
2022-11-17T04:57:15.415Z,5.57
2022-11-17T04:58:17.371Z,6.33
2022-11-17T04:59:19.235Z,6.53
2022-11-17T05:00:20.988Z,6.30
2022-11-17T05:01:23.908Z,6.78
2022-11-17T05:02:25.626Z,6.43
2022-11-17T05:03:27.365Z,6.70
2022-11-17T05:04:47.838Z,6.47
2022-11-17T05:05:49.617Z,6.40
2022-11-17T05:06:51.326Z,6.73
2022-11-17T05:07:53.136Z,6.40
2022-11-17T05:08:56.358Z,7.22
2022-11-17T05:09:58.123Z,5.97
2022-11-17T05:11:18.822Z,6.60
2022-11-17T05:12:39.182Z,6.50
2022-11-17T05:13:40.913Z,6.47
2022-11-17T05:14:42.630Z,6.50
2022-11-17T05:16:02.925Z,6.70
2022-11-17T05:17:11.912Z,5.82
2022-11-17T05:18:13.839Z,6.50
2022-11-17T05:19:19.345Z,6.23
2022-11-17T05:20:21.023Z,6.55
2022-11-17T05:21:22.695Z,6.53
2022-11-17T05:22:43.404Z,6.22
2022-11-17T05:23:54.008Z,6.03
2022-11-17T05:24:57.090Z,6.10
2022-11-17T05:25:58.828Z,6.00
2022-11-17T05:27:00.551Z,5.97
2022-11-17T05:28:02.229Z,6.00
2022-11-17T05:29:05.660Z,5.90
2022-11-17T05:30:09.672Z,5.80
2022-11-17T05:31:11.819Z,5.75
2022-11-17T05:32:13.574Z,5.82
2022-11-17T05:33:15.479Z,6.00
2022-11-17T05:34:17.801Z,6.25
2022-11-17T05:35:19.601Z,5.47
2022-11-17T05:36:22.962Z,5.68
2022-11-17T05:37:24.774Z,5.70
2022-11-17T05:38:26.480Z,6.25
2022-11-17T05:39:31.050Z,6.00
2022-11-17T05:40:34.365Z,5.67
2022-11-17T05:41:37.232Z,5.95
2022-11-17T05:42:38.968Z,5.87
2022-11-17T05:43:40.817Z,5.90
2022-11-17T05:44:42.529Z,6.60
2022-11-17T05:45:45.976Z,6.10
2022-11-17T05:46:47.654Z,6.18
2022-11-17T05:47:49.371Z,6.37
2022-11-17T05:48:51.593Z,6.20
2022-11-17T05:49:53.281Z,6.30
2022-11-17T05:50:56.480Z,6.57
2022-11-17T05:51:58.384Z,6.32
2022-11-17T05:53:00.097Z,6.57
2022-11-17T05:54:01.874Z,6.78
2022-11-17T05:55:03.818Z,6.85
2022-11-17T05:56:23.068Z,5.88
2022-11-17T05:57:30.745Z,6.20
2022-11-17T05:58:34.029Z,6.20
2022-11-17T05:59:39.515Z,5.60
2022-11-17T06:00:42.034Z,6.00
2022-11-17T06:02:05.941Z,5.30
2022-11-17T06:03:25.431Z,7.85
2022-11-17T06:04:27.353Z,7.00
2022-11-17T06:05:29.140Z,5.90
2022-11-17T06:06:31.381Z,6.05
2022-11-17T06:07:34.449Z,6.32
2022-11-17T06:08:37.001Z,6.00
2022-11-17T06:09:41.404Z,6.28
2022-11-17T06:10:43.291Z,8.10
2022-11-17T06:11:45.010Z,6.97
2022-11-17T06:12:47.795Z,6.75
2022-11-17T06:13:49.549Z,6.43
2022-11-17T06:14:51.459Z,6.73
2022-11-17T06:15:55.940Z,6.60
2022-11-17T06:17:02.055Z,6.50
2022-11-17T06:18:11.478Z,7.63
2022-11-17T06:19:27.858Z,7.57
2022-11-17T06:20:34.608Z,6.63
2022-11-17T06:22:04.338Z,6.60
2022-11-17T06:23:01.963Z,7.13
2022-11-17T06:24:04.765Z,12.17
2022-11-17T06:25:09.672Z,13.10
2022-11-17T06:26:12.129Z,15.25
2022-11-17T06:27:15.795Z,10.97
2022-11-17T06:28:21.110Z,9.37
2022-11-17T06:29:22.945Z,8.45
2022-11-17T06:30:24.814Z,7.80
2022-11-17T06:31:28.078Z,7.73
2022-11-17T06:32:32.826Z,9.03
2022-11-17T06:33:36.044Z,9.20
2022-11-17T06:34:38.132Z,10.33
2022-11-17T06:35:42.657Z,9.20
2022-11-17T06:36:44.393Z,7.97
2022-11-17T06:37:46.107Z,8.10
2022-11-17T06:38:47.866Z,7.70
2022-11-17T06:39:49.572Z,8.80
2022-11-17T06:40:51.892Z,8.70
2022-11-17T06:41:53.617Z,9.30
2022-11-17T06:43:08.604Z,8.63
2022-11-17T06:44:10.359Z,9.97
2022-11-17T06:45:12.263Z,8.93
2022-11-17T06:46:14.006Z,8.90
2022-11-17T06:47:15.685Z,10.13
2022-11-17T06:48:18.570Z,9.63
2022-11-17T06:49:20.342Z,7.63
2022-11-17T06:50:22.083Z,7.00
2022-11-17T06:51:23.831Z,6.40
2022-11-17T06:52:25.505Z,7.20
2022-11-17T06:53:28.541Z,7.53
2022-11-17T06:54:30.351Z,8.07
2022-11-17T06:55:32.590Z,8.90
2022-11-17T06:56:34.383Z,7.93
2022-11-17T06:57:36.109Z,7.13
2022-11-17T06:58:40.236Z,6.63
2022-11-17T06:59:42.047Z,7.63
2022-11-17T07:00:43.808Z,11.73
2022-11-17T07:01:45.572Z,9.53
2022-11-17T07:02:47.444Z,8.90
2022-11-17T07:03:49.294Z,10.10
2022-11-17T07:04:51.039Z,10.03
2022-11-17T07:05:52.797Z,9.32
2022-11-17T07:06:54.601Z,16.40
2022-11-17T07:08:00.609Z,15.00
2022-11-17T07:09:02.420Z,12.70
2022-11-17T07:10:04.442Z,12.93
2022-11-17T07:11:12.492Z,13.50
2022-11-17T07:12:14.255Z,11.73
2022-11-17T07:13:16.024Z,11.55
2022-11-17T07:14:17.805Z,9.43
2022-11-17T07:15:19.875Z,8.73
2022-11-17T07:16:23.737Z,8.27
2022-11-17T07:17:25.800Z,10.80
2022-11-17T07:18:27.693Z,8.63
2022-11-17T07:19:29.435Z,9.97
2022-11-17T07:20:31.447Z,16.33
2022-11-17T07:21:33.241Z,16.13
2022-11-17T07:22:34.964Z,19.40
2022-11-17T07:23:37.890Z,18.87
2022-11-17T07:24:39.849Z,16.47
2022-11-17T07:25:41.757Z,14.57
2022-11-17T07:26:43.480Z,14.20
2022-11-17T07:27:45.191Z,15.03
2022-11-17T07:28:46.943Z,12.23
2022-11-17T07:29:48.691Z,8.43
2022-11-17T07:30:50.537Z,7.23
2022-11-17T07:31:52.342Z,6.57
2022-11-17T07:32:54.992Z,7.57
2022-11-17T07:33:57.068Z,10.50
2022-11-17T07:34:59.854Z,14.73
2022-11-17T07:36:07.036Z,12.60
2022-11-17T07:37:08.889Z,10.63
2022-11-17T07:38:10.956Z,9.53
2022-11-17T07:39:14.980Z,8.50
2022-11-17T07:40:20.240Z,8.63
2022-11-17T07:41:22.127Z,8.30
2022-11-17T07:42:23.919Z,8.35
2022-11-17T07:43:25.671Z,7.88
2022-11-17T07:44:27.391Z,6.87
2022-11-17T07:45:31.901Z,9.30
2022-11-17T07:46:33.947Z,11.30
2022-11-17T07:47:35.880Z,13.15
2022-11-17T07:48:38.335Z,11.57
2022-11-17T07:49:40.297Z,11.43
2022-11-17T07:50:42.156Z,11.70
2022-11-17T07:51:43.895Z,9.93
2022-11-17T07:52:47.490Z,8.03
2022-11-17T07:53:49.319Z,7.40
2022-11-17T07:54:51.093Z,8.30
2022-11-17T07:55:52.919Z,8.43
2022-11-17T07:56:54.690Z,7.50
2022-11-17T07:57:58.290Z,8.67
2022-11-17T07:59:00.170Z,8.18
2022-11-17T08:00:02.133Z,8.73
2022-11-17T08:01:10.809Z,9.33
2022-11-17T08:02:12.635Z,9.88
2022-11-17T08:03:14.501Z,8.10
2022-11-17T08:04:16.356Z,7.60
2022-11-17T08:05:18.356Z,8.43
2022-11-17T08:06:20.279Z,8.07
2022-11-17T08:07:22.683Z,9.30
2022-11-17T08:08:24.502Z,9.77
2022-11-17T08:09:26.777Z,9.00
2022-11-17T08:10:32.383Z,9.13
2022-11-17T08:11:34.340Z,7.03
2022-11-17T08:12:36.180Z,6.85
2022-11-17T08:13:39.671Z,7.53
2022-11-17T08:14:41.440Z,7.07
2022-11-17T08:15:43.247Z,7.57
2022-11-17T08:16:45.029Z,6.23
2022-11-17T08:17:51.068Z,6.80
2022-11-17T08:18:52.958Z,6.73
2022-11-17T08:19:54.868Z,6.57
2022-11-17T08:21:09.545Z,6.30
2022-11-17T08:22:11.354Z,5.57
2022-11-17T08:23:13.143Z,6.25
2022-11-17T08:24:14.996Z,5.82
2022-11-17T08:26:18.315Z,5.72
2022-11-17T08:27:20.256Z,5.40
2022-11-17T08:28:22.575Z,5.78
2022-11-17T08:29:24.760Z,3.70
2022-11-17T08:30:26.828Z,3.55
2022-11-17T08:31:28.724Z,3.80
2022-11-17T08:32:30.574Z,2.42
2022-11-17T08:33:32.950Z,3.15
2022-11-17T08:34:34.743Z,2.85
2022-11-17T08:35:37.873Z,2.72
2022-11-17T08:36:40.183Z,2.70
2022-11-17T08:37:42.192Z,2.50
2022-11-17T08:38:44.135Z,2.40
2022-11-17T08:39:45.967Z,2.42
2022-11-17T08:40:47.774Z,2.22
2022-11-17T08:41:51.984Z,2.10
2022-11-17T08:43:00.997Z,2.22
2022-11-17T08:44:03.573Z,1.80
2022-11-17T08:45:07.566Z,2.00
2022-11-17T08:46:13.529Z,1.30
2022-11-17T08:47:15.276Z,1.33
2022-11-17T08:48:17.309Z,0.95
2022-11-17T08:49:19.075Z,1.25
2022-11-17T08:50:20.987Z,1.20
2022-11-17T08:51:22.778Z,1.30
2022-11-17T08:52:24.601Z,0.82
2022-11-17T08:53:26.384Z,1.20
2022-11-17T08:54:28.170Z,1.17
2022-11-17T08:55:30.034Z,0.93
2022-11-17T08:56:32.094Z,0.80
2022-11-17T08:57:34.118Z,0.60
2022-11-17T08:58:44.618Z,0.75
2022-11-17T08:59:46.367Z,0.65
2022-11-17T09:00:48.255Z,1.00
2022-11-17T09:01:50.017Z,0.80
2022-11-17T09:02:51.854Z,0.55
2022-11-17T09:03:53.698Z,0.75
2022-11-17T09:04:55.871Z,0.70
2022-11-17T09:05:57.676Z,0.50
2022-11-17T09:06:59.533Z,0.80
2022-11-17T09:08:16.352Z,0.80
2022-11-17T09:09:23.404Z,0.70
2022-11-17T09:10:25.937Z,0.77
2022-11-17T09:11:27.717Z,0.70
2022-11-17T09:12:29.613Z,0.50
2022-11-17T09:13:31.687Z,0.82
2022-11-17T09:14:33.556Z,0.75
2022-11-17T09:15:35.577Z,0.68
2022-11-17T09:16:37.762Z,0.90
2022-11-17T09:17:40.366Z,0.70
2022-11-17T09:18:42.337Z,0.60
2022-11-17T09:19:44.321Z,0.70
2022-11-17T09:20:46.462Z,0.55
2022-11-17T09:21:48.219Z,0.60
2022-11-17T09:22:50.118Z,0.65
2022-11-17T09:23:52.731Z,0.73
2022-11-17T09:24:54.521Z,0.70
2022-11-17T09:25:56.270Z,0.60
2022-11-17T09:26:58.060Z,0.43
2022-11-17T09:28:01.198Z,0.60
2022-11-17T09:29:04.327Z,0.60
2022-11-17T09:30:08.034Z,0.70
2022-11-17T09:31:21.216Z,0.70
2022-11-17T09:32:23.046Z,0.65
2022-11-17T09:33:25.057Z,0.70
2022-11-17T09:34:27.419Z,0.68
2022-11-17T09:35:29.181Z,0.95
2022-11-17T09:36:30.926Z,0.75
2022-11-17T09:37:32.930Z,0.68
2022-11-17T09:38:38.802Z,0.60
2022-11-17T09:39:40.760Z,0.55
2022-11-17T09:40:43.607Z,0.70
2022-11-17T09:41:56.335Z,0.82
2022-11-17T09:42:58.336Z,0.70
2022-11-17T09:44:15.296Z,0.70
2022-11-17T09:45:34.149Z,0.60
2022-11-17T09:47:06.079Z,0.63
2022-11-17T09:50:00.965Z,0.50
2022-11-17T09:51:04.403Z,0.60
2022-11-17T09:52:30.499Z,0.60
2022-11-17T09:53:56.504Z,0.47
2022-11-17T09:55:22.184Z,0.68
2022-11-17T09:56:27.239Z,0.70
2022-11-17T09:57:45.566Z,0.50
2022-11-17T09:59:01.475Z,0.80
2022-11-17T10:00:14.757Z,0.70
2022-11-17T10:01:19.221Z,0.73
2022-11-17T10:02:21.141Z,0.57
2022-11-17T10:03:31.322Z,0.75
2022-11-17T10:04:34.182Z,0.77
2022-11-17T10:05:36.329Z,1.02
2022-11-17T10:06:38.272Z,0.90
2022-11-17T10:07:46.057Z,0.70
2022-11-17T10:08:58.349Z,0.70
2022-11-17T10:10:02.228Z,0.60
2022-11-17T10:11:24.290Z,0.77
2022-11-17T10:12:34.277Z,0.63
2022-11-17T10:13:37.949Z,0.60
2022-11-17T10:14:41.087Z,1.20
2022-11-17T10:15:50.305Z,1.25
2022-11-17T10:16:57.729Z,0.60
2022-11-17T10:17:59.479Z,0.70
2022-11-17T10:19:21.481Z,0.90
2022-11-17T10:20:23.455Z,1.48
2022-11-17T10:21:30.691Z,0.80
2022-11-17T10:22:37.223Z,0.80
2022-11-17T10:23:46.859Z,0.95
2022-11-17T10:24:51.272Z,0.90
2022-11-17T10:25:58.217Z,0.88
2022-11-17T10:27:00.739Z,0.95
2022-11-17T10:28:02.652Z,0.88
2022-11-17T10:29:11.298Z,0.77
2022-11-17T10:30:19.278Z,0.80
2022-11-17T10:31:21.114Z,0.80
2022-11-17T10:32:23.069Z,1.33
2022-11-17T10:33:50.004Z,1.20
2022-11-17T10:34:52.001Z,0.90
2022-11-17T10:35:56.331Z,1.05
2022-11-17T10:37:05.681Z,0.70
2022-11-17T10:38:20.186Z,0.82
2022-11-17T10:39:37.391Z,1.30
2022-11-17T10:40:39.145Z,0.80
2022-11-17T10:41:50.438Z,1.17
2022-11-17T10:43:16.914Z,0.88
2022-11-17T10:44:28.376Z,0.88
2022-11-17T10:45:30.462Z,1.15
2022-11-17T10:46:43.134Z,0.93
2022-11-17T10:47:48.416Z,0.80
2022-11-17T10:49:02.003Z,0.95
2022-11-17T10:50:20.662Z,0.82
2022-11-17T10:51:24.917Z,1.20
2022-11-17T10:52:26.803Z,1.08
2022-11-17T10:53:33.419Z,1.02
2022-11-17T10:54:37.512Z,1.20
2022-11-17T10:55:39.803Z,1.63
2022-11-17T10:56:49.542Z,0.98
2022-11-17T10:58:24.197Z,0.90
2022-11-17T10:59:32.645Z,1.08
2022-11-17T11:00:36.831Z,0.85
2022-11-17T11:01:41.925Z,0.90
2022-11-17T11:02:43.816Z,0.95
2022-11-17T11:03:50.346Z,1.10
2022-11-17T11:05:07.032Z,1.05
2022-11-17T11:06:26.112Z,0.80
2022-11-17T11:07:27.925Z,0.98
2022-11-17T11:08:42.108Z,1.10
2022-11-17T11:09:58.397Z,1.30
2022-11-17T11:11:02.436Z,1.10
2022-11-17T11:12:10.429Z,1.35
2022-11-17T11:13:12.257Z,1.08
2022-11-17T11:14:28.728Z,1.30
2022-11-17T11:15:35.319Z,1.27
2022-11-17T11:16:37.064Z,1.15
2022-11-17T11:17:38.994Z,1.13
2022-11-17T11:18:40.960Z,1.10
2022-11-17T11:19:47.602Z,1.02
2022-11-17T11:21:17.224Z,1.08
2022-11-17T11:22:21.972Z,1.10
2022-11-17T11:23:39.625Z,1.45
2022-11-17T11:25:03.407Z,1.50
2022-11-17T11:26:37.661Z,1.10
2022-11-17T11:27:55.894Z,1.20
2022-11-17T11:29:11.078Z,1.17
2022-11-17T11:30:16.785Z,1.05
2022-11-17T11:31:49.333Z,1.10
2022-11-17T11:32:54.083Z,1.20
2022-11-17T11:34:07.076Z,1.10
2022-11-17T11:35:21.433Z,0.77
2022-11-17T11:37:21.225Z,1.00
2022-11-17T11:38:52.588Z,1.00
2022-11-17T11:40:21.863Z,1.13
2022-11-17T11:41:49.085Z,1.23
2022-11-17T11:42:59.652Z,1.10
2022-11-17T11:44:39.080Z,1.20
2022-11-17T11:46:01.416Z,1.48
2022-11-17T11:47:27.664Z,1.77
2022-11-17T11:48:36.584Z,1.35
2022-11-17T11:50:22.151Z,2.05
2022-11-17T11:51:37.296Z,1.20
2022-11-17T11:52:45.137Z,1.30
2022-11-17T11:54:09.723Z,1.30
2022-11-17T11:55:32.042Z,1.65
2022-11-17T11:56:38.121Z,1.27
2022-11-17T11:57:46.368Z,1.00
2022-11-17T11:59:18.722Z,1.30
2022-11-17T12:00:20.806Z,1.63
2022-11-17T12:01:23.715Z,1.50
2022-11-17T12:02:40.645Z,1.38
2022-11-17T12:03:42.527Z,1.48
2022-11-17T12:05:05.233Z,1.30
2022-11-17T12:06:54.164Z,1.35
2022-11-17T12:08:10.637Z,1.48
2022-11-17T12:09:19.087Z,1.20
2022-11-17T12:10:55.351Z,1.00
2022-11-17T12:12:00.490Z,1.45
2022-11-17T12:13:04.109Z,1.20
2022-11-17T12:14:06.833Z,1.25
2022-11-17T12:15:20.784Z,1.55
2022-11-17T12:16:35.096Z,1.30
2022-11-17T12:17:38.318Z,1.70
2022-11-17T12:18:40.096Z,1.40
2022-11-17T12:19:45.014Z,1.38
2022-11-17T12:21:01.766Z,1.42
2022-11-17T12:22:04.686Z,1.13
2022-11-17T12:23:34.340Z,1.13
2022-11-17T12:24:41.952Z,1.20
2022-11-17T12:25:54.318Z,1.52
2022-11-17T12:27:34.355Z,1.17
2022-11-17T12:28:38.093Z,1.25
2022-11-17T12:29:47.197Z,1.52
2022-11-17T12:30:52.271Z,1.63
2022-11-17T12:31:59.540Z,1.40
2022-11-17T12:33:04.681Z,1.00
2022-11-17T12:34:06.463Z,1.02
2022-11-17T12:35:31.260Z,1.27
2022-11-17T12:36:34.279Z,1.58
2022-11-17T12:37:36.293Z,1.35
2022-11-17T12:38:39.486Z,1.30
2022-11-17T12:40:02.123Z,1.35
2022-11-17T12:41:04.180Z,1.75
2022-11-17T12:42:07.185Z,1.38
2022-11-17T12:43:28.158Z,1.38
2022-11-17T12:44:38.393Z,1.50
2022-11-17T12:46:20.019Z,1.33
2022-11-17T12:47:23.131Z,1.30
2022-11-17T12:48:35.595Z,1.33
2022-11-17T12:50:02.288Z,1.73
2022-11-17T12:51:11.591Z,1.58
2022-11-17T12:52:23.195Z,1.40
2022-11-17T12:53:26.973Z,1.52
2022-11-17T12:54:38.263Z,1.50
2022-11-17T12:56:20.999Z,1.20
2022-11-17T12:57:30.976Z,1.58
2022-11-17T12:58:51.310Z,1.42
2022-11-17T13:00:11.707Z,1.45
2022-11-17T13:01:42.842Z,1.30
2022-11-17T13:03:27.137Z,1.30
2022-11-17T13:04:49.802Z,1.35
2022-11-17T13:06:34.225Z,1.08
2022-11-17T13:07:35.152Z,1.23
2022-11-17T13:08:37.011Z,13.98
2022-11-17T13:09:38.795Z,2.60
2022-11-17T13:10:41.741Z,1.63
2022-11-17T13:11:59.393Z,2.08
2022-11-17T13:13:22.047Z,1.58
2022-11-17T13:14:24.133Z,1.55
2022-11-17T13:15:25.882Z,1.63
2022-11-17T13:16:27.667Z,2.03
2022-11-17T13:17:41.884Z,1.80
2022-11-17T13:18:43.679Z,1.80
2022-11-17T13:19:46.134Z,1.60
2022-11-17T13:20:49.223Z,1.60
2022-11-17T13:21:58.953Z,1.70
2022-11-17T13:23:13.769Z,1.90
2022-11-17T13:24:29.530Z,1.70
2022-11-17T13:25:31.511Z,1.83
2022-11-17T13:26:38.302Z,1.50
2022-11-17T13:27:49.418Z,1.80
2022-11-17T13:29:18.927Z,1.80
2022-11-17T13:30:26.127Z,1.20
2022-11-17T13:31:27.980Z,1.70
2022-11-17T13:32:30.649Z,1.33
2022-11-17T13:33:38.422Z,1.27
2022-11-17T13:34:50.923Z,1.58
2022-11-17T13:36:09.083Z,1.13
2022-11-17T13:37:19.217Z,1.20
2022-11-17T13:38:23.041Z,1.38
2022-11-17T13:39:28.638Z,1.30
2022-11-17T13:40:32.355Z,1.30
2022-11-17T13:41:43.492Z,1.40
2022-11-17T13:42:45.475Z,1.30
2022-11-17T13:43:48.844Z,1.77
2022-11-17T13:44:51.965Z,1.65
2022-11-17T13:45:55.152Z,1.38
2022-11-17T13:46:56.857Z,1.92
2022-11-17T13:47:59.619Z,1.58
2022-11-17T13:49:01.443Z,1.80
2022-11-17T13:50:37.348Z,1.23
2022-11-17T13:51:39.967Z,1.33
2022-11-17T13:52:46.669Z,1.58
2022-11-17T13:54:01.165Z,1.60
2022-11-17T13:55:06.157Z,1.70
2022-11-17T13:56:21.275Z,1.70
2022-11-17T13:57:27.770Z,2.45
2022-11-17T13:58:39.988Z,1.65
2022-11-17T13:59:41.822Z,2.00
2022-11-17T14:00:54.504Z,2.05
2022-11-17T14:02:15.402Z,1.80
2022-11-17T14:03:40.101Z,2.30
2022-11-17T14:04:42.847Z,1.80
2022-11-17T14:05:56.806Z,1.77
2022-11-17T14:07:02.722Z,1.55
2022-11-17T14:08:23.538Z,2.20
2022-11-17T14:09:27.398Z,2.15
2022-11-17T14:10:31.727Z,2.08
2022-11-17T14:11:33.650Z,1.85
2022-11-17T14:12:35.888Z,1.83
2022-11-17T14:13:44.476Z,2.10
2022-11-17T14:14:46.325Z,2.10
2022-11-17T14:15:54.403Z,2.00
2022-11-17T14:16:57.566Z,1.70
2022-11-17T14:18:02.656Z,2.00
2022-11-17T14:19:06.512Z,2.00
2022-11-17T14:20:31.580Z,1.42
2022-11-17T14:21:33.554Z,2.13
2022-11-17T14:22:35.421Z,1.83
2022-11-17T14:23:37.729Z,2.03
2022-11-17T14:24:40.880Z,1.67
2022-11-17T14:25:44.797Z,1.67
2022-11-17T14:26:46.591Z,2.03
2022-11-17T14:27:52.191Z,2.03
2022-11-17T14:28:56.727Z,2.30
2022-11-17T14:29:58.518Z,2.25
2022-11-17T14:31:00.353Z,1.83
2022-11-17T14:32:02.109Z,2.05
2022-11-17T14:33:10.563Z,1.92
2022-11-17T14:34:15.250Z,1.90
2022-11-17T14:36:20.096Z,2.47
2022-11-17T14:37:21.872Z,2.28
2022-11-17T14:38:24.202Z,2.15
2022-11-17T14:39:26.140Z,2.25
2022-11-17T14:40:28.257Z,2.60
2022-11-17T14:41:30.595Z,2.50
2022-11-17T14:42:36.018Z,2.30
2022-11-17T14:43:38.357Z,2.20
2022-11-17T14:44:40.134Z,2.42
2022-11-17T14:45:42.038Z,2.55
2022-11-17T14:46:43.940Z,2.85
2022-11-17T14:47:45.789Z,2.53
2022-11-17T14:48:47.715Z,2.38
2022-11-17T14:49:50.322Z,2.22
2022-11-17T14:51:00.899Z,2.88
2022-11-17T14:52:02.826Z,2.55
2022-11-17T14:53:04.826Z,2.20
2022-11-17T14:54:06.900Z,2.28
2022-11-17T14:55:10.044Z,2.72
2022-11-17T14:56:15.796Z,2.25
2022-11-17T14:57:17.568Z,2.45
2022-11-17T14:58:25.879Z,2.10
2022-11-17T14:59:27.732Z,2.35
2022-11-17T15:00:29.573Z,1.90